createdAt,value
2022-12-09T00:02:03.013Z,8.25
2022-12-09T00:04:23.503Z,7.60
2022-12-09T00:06:44.713Z,7.20
2022-12-09T00:09:05.013Z,6.05
2022-12-09T00:11:26.150Z,13.55
2022-12-09T00:13:54.765Z,12.27
2022-12-09T00:16:15.587Z,6.82
2022-12-09T00:18:37.689Z,6.13
2022-12-09T00:21:36.424Z,10.25
2022-12-09T00:23:58.159Z,6.97
2022-12-09T00:26:20.847Z,6.10
2022-12-09T00:28:41.502Z,6.15
2022-12-09T00:31:36.140Z,6.00
2022-12-09T00:33:58.411Z,5.35
2022-12-09T00:36:46.909Z,5.55
2022-12-09T00:39:07.576Z,6.60
2022-12-09T00:41:32.566Z,5.90
2022-12-09T00:43:53.343Z,5.05
2022-12-09T00:46:39.644Z,4.75
2022-12-09T00:49:00.675Z,6.10
2022-12-09T00:51:24.698Z,4.57
2022-12-09T00:53:53.829Z,5.60
2022-12-09T00:56:15.288Z,5.25
2022-12-09T00:58:35.956Z,4.90
2022-12-09T01:00:58.914Z,5.47
2022-12-09T01:06:20.431Z,7.63
2022-12-09T01:08:43.017Z,5.95
2022-12-09T01:11:15.765Z,5.07
2022-12-09T01:13:35.503Z,5.25
2022-12-09T01:15:56.527Z,5.47
2022-12-09T01:18:21.101Z,5.78
2022-12-09T01:21:16.898Z,5.47
2022-12-09T01:23:37.653Z,5.28
2022-12-09T01:26:07.972Z,6.55
2022-12-09T01:28:27.801Z,4.72
2022-12-09T01:31:19.475Z,5.60
2022-12-09T01:33:41.949Z,5.38
2022-12-09T01:36:09.104Z,4.78
2022-12-09T01:38:31.531Z,5.05
2022-12-09T01:41:20.685Z,5.30
2022-12-09T01:43:43.442Z,4.82
2022-12-09T01:46:29.889Z,4.35
2022-12-09T01:48:50.024Z,6.18
2022-12-09T01:51:19.524Z,4.72
2022-12-09T01:53:44.603Z,4.72
2022-12-09T01:56:30.325Z,5.32
2022-12-09T01:58:52.119Z,4.45
2022-12-09T02:01:14.499Z,4.57
2022-12-09T02:03:35.393Z,4.07
2022-12-09T02:05:57.886Z,3.70
2022-12-09T02:08:19.548Z,4.80
2022-12-09T02:11:05.618Z,9.35
2022-12-09T02:13:47.962Z,4.00
2022-12-09T02:16:22.796Z,4.82
2022-12-09T02:18:56.604Z,4.25
2022-12-09T02:21:34.034Z,4.60
2022-12-09T02:24:14.767Z,6.35
2022-12-09T02:26:43.266Z,6.93
2022-12-09T02:29:18.981Z,3.90
2022-12-09T02:31:59.440Z,6.47
2022-12-09T02:34:28.356Z,4.70
2022-12-09T02:37:03.683Z,4.45
2022-12-09T02:39:37.252Z,4.65
2022-12-09T02:42:00.193Z,4.25
2022-12-09T02:44:22.478Z,7.72
2022-12-09T02:46:45.096Z,4.28
2022-12-09T02:49:05.591Z,4.55
2022-12-09T02:51:57.066Z,6.05
2022-12-09T02:54:18.809Z,10.80
2022-12-09T02:56:47.424Z,7.03
2022-12-09T02:59:07.730Z,5.55
2022-12-09T03:01:42.899Z,6.32
2022-12-09T03:04:03.126Z,5.70
2022-12-09T03:06:30.571Z,5.60
2022-12-09T03:08:57.568Z,4.13
2022-12-09T03:11:21.344Z,7.93
2022-12-09T03:14:02.979Z,4.63
2022-12-09T03:16:46.153Z,5.15
2022-12-09T03:19:09.281Z,4.95
2022-12-09T03:21:32.454Z,6.18
2022-12-09T03:23:55.692Z,6.18
2022-12-09T03:26:17.323Z,5.53
2022-12-09T03:28:42.425Z,5.75
2022-12-09T03:31:12.790Z,3.97
2022-12-09T03:33:32.865Z,5.10
2022-12-09T03:35:57.101Z,5.20
2022-12-09T03:38:20.651Z,4.63
2022-12-09T03:41:08.279Z,5.72
2022-12-09T03:43:32.936Z,5.32
2022-12-09T03:45:57.500Z,4.25
2022-12-09T03:48:17.842Z,5.07
2022-12-09T03:50:51.072Z,6.28
2022-12-09T03:53:20.547Z,4.88
2022-12-09T03:56:12.214Z,4.35
2022-12-09T03:58:34.047Z,8.43
2022-12-09T04:00:54.282Z,4.30
2022-12-09T04:03:16.847Z,3.90
2022-12-09T04:05:36.955Z,3.97
2022-12-09T04:07:57.137Z,4.25
2022-12-09T04:10:19.501Z,4.28
2022-12-09T04:12:39.513Z,4.23
2022-12-09T04:14:59.501Z,5.30
2022-12-09T04:17:20.304Z,5.15
2022-12-09T04:19:41.007Z,3.90
2022-12-09T04:22:01.319Z,3.70
2022-12-09T04:24:21.469Z,3.92
2022-12-09T04:27:09.938Z,4.47
2022-12-09T04:29:31.380Z,4.45
2022-12-09T04:32:19.637Z,3.33
2022-12-09T04:34:39.575Z,4.50
2022-12-09T04:36:59.432Z,6.25
2022-12-09T04:39:19.465Z,3.53
2022-12-09T04:41:40.725Z,4.60
2022-12-09T04:44:01.288Z,3.65
2022-12-09T04:46:29.751Z,3.95
2022-12-09T04:48:49.948Z,4.80
2022-12-09T04:51:39.969Z,5.45
2022-12-09T04:54:00.689Z,4.13
2022-12-09T04:56:53.393Z,5.05
2022-12-09T04:59:14.060Z,4.15
2022-12-09T05:06:56.614Z,6.43
2022-12-09T05:09:22.581Z,5.60
2022-12-09T05:12:09.994Z,4.82
2022-12-09T05:14:30.177Z,5.57
2022-12-09T05:16:50.862Z,3.85
2022-12-09T05:19:11.392Z,5.15
2022-12-09T05:35:28.908Z,5.63
2022-12-09T05:37:49.238Z,4.95
2022-12-09T05:40:13.176Z,7.38
2022-12-09T05:42:38.000Z,8.68
2022-12-09T05:45:28.466Z,5.00
2022-12-09T05:47:48.498Z,9.48
2022-12-09T05:50:36.676Z,4.13
2022-12-09T05:52:59.219Z,6.53
2022-12-09T06:01:09.452Z,8.10
2022-12-09T06:03:30.067Z,5.13
2022-12-09T06:05:55.066Z,5.18
2022-12-09T06:08:16.894Z,5.20
2022-12-09T06:10:40.575Z,7.17
2022-12-09T06:13:00.642Z,8.00
2022-12-09T06:15:28.193Z,7.03
2022-12-09T06:17:51.854Z,6.60
2022-12-09T06:20:16.077Z,9.27
2022-12-09T06:22:39.125Z,6.57
2022-12-09T06:24:59.401Z,6.35
2022-12-09T06:27:20.723Z,6.30
2022-12-09T06:29:41.846Z,9.75
2022-12-09T06:32:02.563Z,9.68
2022-12-09T06:34:23.123Z,8.13
2022-12-09T06:36:43.533Z,13.18
2022-12-09T06:39:10.156Z,9.07
2022-12-09T06:41:32.131Z,12.75
2022-12-09T06:43:52.161Z,10.98
2022-12-09T06:46:22.622Z,5.82
2022-12-09T06:48:43.729Z,13.05
2022-12-09T06:51:05.625Z,17.10
2022-12-09T06:53:25.949Z,10.32
2022-12-09T06:55:46.822Z,14.50
2022-12-09T06:58:07.722Z,15.05
2022-12-09T07:00:28.465Z,9.98
2022-12-09T07:02:48.558Z,17.20
2022-12-09T07:05:09.798Z,19.58
2022-12-09T07:07:29.918Z,19.10
2022-12-09T07:09:50.354Z,16.65
2022-12-09T07:12:10.480Z,13.07
2022-12-09T07:14:30.757Z,12.80
2022-12-09T07:16:51.590Z,14.27
2022-12-09T07:19:17.213Z,19.42
2022-12-09T07:21:37.765Z,11.88
2022-12-09T07:24:02.115Z,17.77
2022-12-09T07:26:22.171Z,27.45
2022-12-09T07:28:42.928Z,19.63
2022-12-09T07:31:03.764Z,19.88
2022-12-09T07:33:24.130Z,20.65
2022-12-09T07:35:44.782Z,21.10
2022-12-09T07:38:05.005Z,23.42
2022-12-09T07:40:27.203Z,14.82
2022-12-09T07:42:46.997Z,14.90
2022-12-09T07:45:09.214Z,22.77
2022-12-09T07:47:29.567Z,17.13
2022-12-09T07:49:49.872Z,24.08
2022-12-09T07:52:11.537Z,21.58
2022-12-09T07:54:31.392Z,32.67
2022-12-09T07:56:51.283Z,22.63
2022-12-09T07:59:13.675Z,19.05
2022-12-09T08:01:34.449Z,19.70
2022-12-09T08:03:55.496Z,19.58
2022-12-09T08:06:21.624Z,19.23
2022-12-09T08:08:43.217Z,25.85
2022-12-09T08:11:14.187Z,22.35
2022-12-09T08:13:35.936Z,16.95
2022-12-09T08:16:06.964Z,22.92
2022-12-09T08:18:26.819Z,14.20
2022-12-09T08:20:47.832Z,21.63
2022-12-09T08:23:08.348Z,18.90
2022-12-09T08:25:28.684Z,32.08
2022-12-09T08:27:48.693Z,17.08
2022-12-09T08:30:10.021Z,15.07
2022-12-09T08:32:31.330Z,19.48
2022-12-09T08:34:51.797Z,22.63
2022-12-09T08:37:11.624Z,15.02
2022-12-09T08:39:31.908Z,8.05
2022-12-09T08:41:53.072Z,25.50
2022-12-09T08:44:19.580Z,16.45
2022-12-09T08:46:42.696Z,19.60
2022-12-09T08:49:04.533Z,9.70
2022-12-09T08:51:25.543Z,12.38
2022-12-09T08:53:45.670Z,27.20
2022-12-09T08:56:13.805Z,21.10
2022-12-09T08:58:34.217Z,12.50
2022-12-09T09:00:54.395Z,17.45
2022-12-09T09:03:14.754Z,17.65
2022-12-09T09:05:36.321Z,26.55
2022-12-09T09:07:56.905Z,14.68
2022-12-09T09:10:17.862Z,23.05
2022-12-09T09:12:43.300Z,21.73
2022-12-09T09:15:04.537Z,10.95
2022-12-09T09:17:24.751Z,22.70
2022-12-09T09:19:44.940Z,19.70
2022-12-09T09:22:04.974Z,24.00
2022-12-09T09:24:25.393Z,25.52
2022-12-09T09:26:47.681Z,15.20
2022-12-09T09:29:10.508Z,12.98
2022-12-09T09:31:31.092Z,16.02
2022-12-09T09:33:51.251Z,10.75
2022-12-09T09:36:14.987Z,13.23
2022-12-09T09:38:35.336Z,20.02
2022-12-09T09:40:56.106Z,21.70
2022-12-09T09:43:19.414Z,21.17
2022-12-09T09:45:39.200Z,11.15
2022-12-09T09:48:02.641Z,12.98
2022-12-09T09:50:36.944Z,12.50
2022-12-09T09:52:57.647Z,25.40
2022-12-09T09:55:29.838Z,12.02
2022-12-09T09:58:07.912Z,13.45
2022-12-09T10:00:38.058Z,15.85
2022-12-09T10:03:03.777Z,24.00
2022-12-09T10:05:43.542Z,18.00
2022-12-09T10:08:04.129Z,20.02
2022-12-09T10:10:53.622Z,17.42
2022-12-09T10:13:38.868Z,16.63
2022-12-09T10:16:14.440Z,11.02
2022-12-09T10:18:55.251Z,14.00
2022-12-09T10:21:18.002Z,21.65
2022-12-09T10:23:38.629Z,16.98
2022-12-09T10:26:02.983Z,16.58
2022-12-09T10:28:26.965Z,16.27
2022-12-09T10:30:49.453Z,20.10
2022-12-09T10:33:14.946Z,15.77
2022-12-09T10:35:37.438Z,17.15
2022-12-09T10:38:13.449Z,17.50
2022-12-09T10:40:49.171Z,15.43
2022-12-09T10:43:37.989Z,22.60
2022-12-09T10:48:47.288Z,21.58
2022-12-09T10:51:15.084Z,18.83
2022-12-09T10:53:36.132Z,13.80
2022-12-09T10:55:59.624Z,13.95
2022-12-09T10:58:23.084Z,13.63
2022-12-09T11:00:44.028Z,28.15
2022-12-09T11:03:04.519Z,17.73
2022-12-09T11:05:33.611Z,17.15
2022-12-09T11:07:57.018Z,18.00
2022-12-09T11:12:41.345Z,26.70
2022-12-09T11:15:24.711Z,20.70
2022-12-09T11:17:59.844Z,15.07
2022-12-09T11:20:23.488Z,13.93
2022-12-09T11:22:45.174Z,15.52
2022-12-09T11:25:20.170Z,15.85
2022-12-09T11:28:05.388Z,10.50
2022-12-09T11:30:34.293Z,12.60
2022-12-09T11:32:56.726Z,16.02
2022-12-09T11:35:25.971Z,21.73
2022-12-09T11:37:47.354Z,10.00
2022-12-09T11:40:15.966Z,22.70
2022-12-09T11:42:35.748Z,13.50
2022-12-09T11:45:16.876Z,12.82
2022-12-09T11:48:20.324Z,9.70
2022-12-09T11:50:32.035Z,9.43
2022-12-09T11:53:16.622Z,10.05
2022-12-09T11:55:45.828Z,8.35
2022-12-09T11:58:14.083Z,14.00
2022-12-09T12:00:48.282Z,9.00
2022-12-09T12:03:22.941Z,10.98
2022-12-09T12:05:49.718Z,13.05
2022-12-09T12:08:23.959Z,15.05
2022-12-09T12:10:51.169Z,8.18
2022-12-09T12:13:28.534Z,15.52
2022-12-09T12:16:18.672Z,10.23
2022-12-09T12:18:52.254Z,6.03
2022-12-09T12:21:20.195Z,8.73
2022-12-09T12:24:00.511Z,7.82
2022-12-09T12:26:34.271Z,14.88
2022-12-09T12:29:29.943Z,6.72
2022-12-09T12:32:30.318Z,6.13
2022-12-09T12:35:11.766Z,7.50
2022-12-09T12:37:52.525Z,5.95
2022-12-09T12:40:27.761Z,13.45
2022-12-09T12:43:26.871Z,6.45
2022-12-09T12:46:16.516Z,7.13
2022-12-09T12:49:08.259Z,7.72
2022-12-09T12:51:52.542Z,4.75
2022-12-09T12:54:28.906Z,8.90
2022-12-09T12:57:06.440Z,4.45
2022-12-09T12:59:48.261Z,4.82
2022-12-09T13:02:29.727Z,4.03
2022-12-09T13:04:56.982Z,4.10
2022-12-09T13:07:38.364Z,9.30
2022-12-09T13:10:04.621Z,9.75
2022-12-09T13:12:56.158Z,4.38
2022-12-09T13:15:19.651Z,3.33
2022-12-09T13:17:41.261Z,4.65
2022-12-09T13:20:03.401Z,5.43
2022-12-09T13:22:51.905Z,5.03
2022-12-09T13:25:37.567Z,3.63
2022-12-09T13:28:12.379Z,5.18
2022-12-09T13:30:48.450Z,6.80
2022-12-09T13:33:16.021Z,5.60
2022-12-09T13:36:20.619Z,7.43
2022-12-09T13:38:42.383Z,5.57
2022-12-09T13:41:27.001Z,4.07
2022-12-09T13:43:46.867Z,7.05
2022-12-09T13:46:06.645Z,11.30
2022-12-09T13:48:29.326Z,6.40
2022-12-09T13:50:48.934Z,11.55
2022-12-09T13:53:20.818Z,5.88
2022-12-09T13:55:54.880Z,4.07
2022-12-09T13:59:00.161Z,8.07
2022-12-09T14:01:35.446Z,7.10
2022-12-09T14:04:20.404Z,7.57
2022-12-09T14:06:46.435Z,6.72
2022-12-09T14:09:19.751Z,8.15
2022-12-09T14:11:43.511Z,5.35
2022-12-09T14:14:24.923Z,9.02
2022-12-09T14:16:44.783Z,6.75
2022-12-09T14:19:23.213Z,4.55
2022-12-09T14:21:42.996Z,4.70
2022-12-09T14:24:08.672Z,9.80
2022-12-09T14:26:36.262Z,4.35
2022-12-09T14:28:56.193Z,6.68
2022-12-09T14:31:43.306Z,9.10
2022-12-09T14:34:17.059Z,6.80
2022-12-09T14:36:37.281Z,9.70
2022-12-09T14:39:23.850Z,7.82
2022-12-09T14:41:55.417Z,9.82
2022-12-09T14:44:47.364Z,5.70
2022-12-09T14:47:20.261Z,8.05
2022-12-09T14:49:48.599Z,7.63
2022-12-09T14:52:30.438Z,7.90
2022-12-09T14:54:53.099Z,8.18
2022-12-09T14:57:26.038Z,6.72
2022-12-09T14:59:51.149Z,8.00
2022-12-09T15:02:11.090Z,7.93
2022-12-09T15:04:43.000Z,11.98
2022-12-09T15:07:15.062Z,12.68
2022-12-09T15:09:35.531Z,7.05
2022-12-09T15:11:55.253Z,13.40
2022-12-09T15:14:26.649Z,6.07
2022-12-09T15:16:50.585Z,6.13
2022-12-09T15:19:51.038Z,8.73
2022-12-09T15:21:59.489Z,5.70
2022-12-09T15:24:20.150Z,11.68
2022-12-09T15:26:40.713Z,12.32
2022-12-09T15:29:04.437Z,7.47
2022-12-09T15:31:30.179Z,20.50
2022-12-09T15:33:53.800Z,11.00
2022-12-09T15:36:23.642Z,8.32
2022-12-09T15:39:05.221Z,9.75
2022-12-09T15:41:51.223Z,12.50
2022-12-09T15:44:15.263Z,10.88
2022-12-09T15:46:38.632Z,12.20
2022-12-09T15:51:22.200Z,14.90
2022-12-09T15:53:56.430Z,11.57
2022-12-09T15:56:25.393Z,10.98
2022-12-09T15:58:51.855Z,13.23
2022-12-09T16:01:23.288Z,5.15
2022-12-09T16:03:49.211Z,14.90
2022-12-09T16:06:09.303Z,6.15
2022-12-09T16:08:41.237Z,9.88
2022-12-09T16:11:02.036Z,7.00
2022-12-09T16:13:21.797Z,15.45
2022-12-09T16:15:53.188Z,9.43
2022-12-09T16:18:29.513Z,10.75
2022-12-09T16:21:17.155Z,9.43
2022-12-09T16:23:36.943Z,7.68
2022-12-09T16:26:06.652Z,8.70
2022-12-09T16:28:29.282Z,11.02
2022-12-09T16:30:52.455Z,13.82
2022-12-09T16:33:18.813Z,10.65
2022-12-09T16:35:43.868Z,9.80
2022-12-09T16:38:09.648Z,7.95
2022-12-09T16:40:32.283Z,12.65
2022-12-09T16:43:14.569Z,9.93
2022-12-09T16:45:39.927Z,8.67
2022-12-09T16:47:59.837Z,12.77
2022-12-09T16:50:21.284Z,11.73
2022-12-09T16:52:41.573Z,12.95
2022-12-09T16:55:01.912Z,7.68
2022-12-09T16:57:24.674Z,12.85
2022-12-09T16:59:45.915Z,14.48
2022-12-09T17:02:19.314Z,8.77
2022-12-09T17:04:39.820Z,10.68
2022-12-09T17:06:59.795Z,14.75
2022-12-09T17:09:20.342Z,10.90
2022-12-09T17:11:47.021Z,12.52
2022-12-09T17:14:08.559Z,13.10
2022-12-09T17:16:28.367Z,11.88
2022-12-09T17:18:48.742Z,9.68
2022-12-09T17:21:12.747Z,18.88
2022-12-09T17:23:39.171Z,16.88
2022-12-09T17:26:02.389Z,10.05
2022-12-09T17:28:27.080Z,14.20
2022-12-09T17:30:49.599Z,7.45
2022-12-09T17:33:09.516Z,17.08
2022-12-09T17:35:33.054Z,15.60
2022-12-09T17:37:52.842Z,20.83
2022-12-09T17:40:12.818Z,11.05
2022-12-09T17:42:32.793Z,17.50
2022-12-09T17:44:52.554Z,12.65
2022-12-09T17:47:12.655Z,13.20
2022-12-09T17:49:32.735Z,12.30
2022-12-09T17:51:55.350Z,12.95
2022-12-09T17:54:15.714Z,14.52
2022-12-09T17:56:37.156Z,13.38
2022-12-09T17:59:07.781Z,14.63
2022-12-09T18:01:28.101Z,10.23
2022-12-09T18:03:57.238Z,8.50
2022-12-09T18:06:18.239Z,11.18
2022-12-09T18:08:38.265Z,17.92
2022-12-09T18:11:02.899Z,20.15
2022-12-09T18:13:22.839Z,25.75
2022-12-09T18:15:42.456Z,11.68
2022-12-09T18:18:02.360Z,12.60
2022-12-09T18:20:22.304Z,12.57
2022-12-09T18:22:41.913Z,16.58
2022-12-09T18:25:01.821Z,16.27
2022-12-09T18:27:21.915Z,8.88
2022-12-09T18:29:41.963Z,15.40
2022-12-09T18:32:01.946Z,16.67
2022-12-09T18:34:22.801Z,12.68
2022-12-09T18:36:42.753Z,13.93
2022-12-09T18:39:04.382Z,21.75
2022-12-09T18:41:29.537Z,17.67
2022-12-09T18:43:54.687Z,11.55
2022-12-09T18:46:24.999Z,10.52
2022-12-09T18:48:46.210Z,16.52
2022-12-09T18:51:09.002Z,15.75
2022-12-09T18:53:29.436Z,18.90
2022-12-09T18:55:49.347Z,19.33
2022-12-09T18:58:09.232Z,23.00
2022-12-09T19:00:29.661Z,20.13
2022-12-09T19:02:50.013Z,17.15
2022-12-09T19:05:09.991Z,22.05
2022-12-09T19:07:32.447Z,21.95
2022-12-09T19:09:52.945Z,16.05
2022-12-09T19:12:45.215Z,19.77
2022-12-09T19:14:53.548Z,19.10
2022-12-09T19:17:13.181Z,20.73
2022-12-09T19:19:33.188Z,11.05
2022-12-09T19:21:53.881Z,16.65
2022-12-09T19:24:19.632Z,10.18
2022-12-09T19:26:40.842Z,9.80
2022-12-09T19:29:03.890Z,14.18
2022-12-09T19:31:29.600Z,14.45
2022-12-09T19:33:53.188Z,12.52
2022-12-09T19:36:13.413Z,16.20
2022-12-09T19:38:33.283Z,17.83
2022-12-09T19:40:53.142Z,15.90
2022-12-09T19:43:12.975Z,17.98
2022-12-09T19:45:33.406Z,16.10
2022-12-09T19:47:53.147Z,12.57
2022-12-09T19:50:12.833Z,17.13
2022-12-09T19:52:32.624Z,12.15
2022-12-09T19:54:52.821Z,8.48
2022-12-09T19:57:12.641Z,10.63
2022-12-09T19:59:32.631Z,8.98
2022-12-09T20:01:53.087Z,12.43
2022-12-09T20:04:47.527Z,6.80
2022-12-09T20:06:59.860Z,7.28
2022-12-09T20:09:23.716Z,2.92
2022-12-09T20:11:43.977Z,4.60
2022-12-09T20:14:05.472Z,4.13
2022-12-09T20:16:26.079Z,2.47
2022-12-09T20:18:47.868Z,3.40
2022-12-09T20:21:09.964Z,4.75
2022-12-09T20:23:30.287Z,5.00
2022-12-09T20:25:49.952Z,10.05
2022-12-09T20:28:09.717Z,10.85
2022-12-09T20:30:30.061Z,11.00
2022-12-09T20:32:49.852Z,12.38
2022-12-09T20:35:10.232Z,16.33
2022-12-09T20:37:31.090Z,15.18
2022-12-09T20:39:50.860Z,19.63
2022-12-09T20:42:10.445Z,4.80
2022-12-09T20:44:31.670Z,8.13
2022-12-09T20:46:52.750Z,13.93
2022-12-09T20:49:12.709Z,4.18
2022-12-09T20:51:35.842Z,6.28
2022-12-09T20:53:56.558Z,9.75
2022-12-09T20:56:17.686Z,5.72
2022-12-09T20:58:38.486Z,7.75
2022-12-09T21:01:14.495Z,7.45
2022-12-09T21:03:35.070Z,6.90
2022-12-09T21:05:57.944Z,7.03
2022-12-09T21:08:18.393Z,8.27
2022-12-09T21:10:38.442Z,6.88
2022-12-09T21:12:58.588Z,10.60
2022-12-09T21:15:19.773Z,6.50
2022-12-09T21:17:39.405Z,6.25
2022-12-09T21:19:59.170Z,5.82
2022-12-09T21:22:19.627Z,13.32
2022-12-09T21:24:39.482Z,10.57
2022-12-09T21:27:00.318Z,5.60
2022-12-09T21:29:20.194Z,7.82
2022-12-09T21:31:43.435Z,4.70
2022-12-09T21:34:05.608Z,5.97
2022-12-09T21:36:29.009Z,5.35
2022-12-09T21:38:49.457Z,6.63
2022-12-09T21:41:20.011Z,1.58
2022-12-09T21:43:40.486Z,4.15
2022-12-09T21:46:04.637Z,2.83
2022-12-09T21:48:24.210Z,3.00
2022-12-09T21:50:43.994Z,2.97
2022-12-09T21:53:04.071Z,3.75
2022-12-09T21:55:23.810Z,3.60
2022-12-09T21:57:43.430Z,5.25
2022-12-09T22:00:04.205Z,4.10
2022-12-09T22:02:23.989Z,1.83
2022-12-09T22:04:43.694Z,2.28
2022-12-09T22:07:03.480Z,5.88
2022-12-09T22:09:24.023Z,2.78
2022-12-09T22:11:44.443Z,3.88
2022-12-09T22:14:06.761Z,3.28
2022-12-09T22:16:29.910Z,2.00
2022-12-09T22:21:30.509Z,2.70
2022-12-09T22:23:55.900Z,4.15
2022-12-09T22:26:21.246Z,3.08
2022-12-09T22:28:41.120Z,3.97
2022-12-09T22:31:01.443Z,3.08
2022-12-09T22:33:21.112Z,4.15
2022-12-09T22:35:40.751Z,3.35
2022-12-09T22:38:00.550Z,2.50
2022-12-09T22:40:20.760Z,2.55
2022-12-09T22:42:40.774Z,3.70
2022-12-09T22:45:00.304Z,9.43
2022-12-09T22:47:20.004Z,3.63
2022-12-09T22:49:39.601Z,4.15
2022-12-09T22:52:00.780Z,3.95
2022-12-09T22:54:22.570Z,5.32
2022-12-09T22:56:43.281Z,8.30
2022-12-09T22:59:03.263Z,4.82
2022-12-09T23:01:32.050Z,2.70
2022-12-09T23:03:53.308Z,3.67
2022-12-09T23:06:13.781Z,5.45
2022-12-09T23:08:34.382Z,4.75
2022-12-09T23:10:54.319Z,15.63
2022-12-09T23:13:13.929Z,14.23
2022-12-09T23:15:34.876Z,12.20
2022-12-09T23:17:55.083Z,10.60
2022-12-09T23:20:15.106Z,8.20
2022-12-09T23:22:34.859Z,6.03
2022-12-09T23:24:54.340Z,3.88
2022-12-09T23:27:13.861Z,3.90
2022-12-09T23:29:33.422Z,4.07
2022-12-09T23:31:53.276Z,3.33
2022-12-09T23:34:14.333Z,4.93
2022-12-09T23:36:37.444Z,5.47
2022-12-09T23:38:57.487Z,3.85
2022-12-09T23:41:20.156Z,3.58
2022-12-09T23:43:40.497Z,4.57
2022-12-09T23:46:01.486Z,3.75
2022-12-09T23:48:21.406Z,3.60
2022-12-09T23:50:41.112Z,3.28
2022-12-09T23:53:00.749Z,3.90
2022-12-09T23:55:21.005Z,2.33
2022-12-09T23:57:40.995Z,3.35
